1MN5 weather

Molnau Airpark
Waconia, Minnesota, United States

Public forecast

Using degrees Fahrenheit for public forecast. Weather courtesy of forecast.io.

Closest aviation weather report (METAR) to Molnau Airpark

Closest report is Flying Cloud Airport, 12.1 nm (22.4 km) E. Retrieved 2020/04/08 21:53 UTC (17 minutes ago):

KFCM 082153Z 28019G30KT 10SM CLR 12/M07 A2981 RMK AO2 PK WND 30032/2125 SLP097 T01221072

Closest aviation forecast (TAF) to Molnau Airpark

Forecast is more than 12 hours old.

Closest forecast is Flying Cloud Airport, 12.1 nm (22.4 km) E. Retrieved 2018/02/05 00:21 UTC (2 years ago):

TAF KFCM 052320Z 0600/0624 30007KT P6SM FEW200 FM061000 VRB03KT P6SM FEW250 FM061800 22006KT P6SM SCT100 BKN250 AMD NOT SKED